createdAt,value
2022-08-12T00:02:05.892Z,30.45
2022-08-12T00:09:04.216Z,30.37
2022-08-12T00:16:06.501Z,30.34
2022-08-12T00:23:05.587Z,30.39
2022-08-12T00:30:03.811Z,30.45
2022-08-12T00:37:13.022Z,30.26
2022-08-12T00:44:00.503Z,30.52
2022-08-12T00:50:47.045Z,30.18
2022-08-12T00:57:38.560Z,30.64
2022-08-12T01:04:38.284Z,30.49
2022-08-12T01:11:33.917Z,30.78
2022-08-12T01:18:23.945Z,30.68
2022-08-12T01:25:15.209Z,30.59
2022-08-12T01:32:05.263Z,30.45
2022-08-12T01:38:55.990Z,30.40
2022-08-12T01:46:17.532Z,30.24
2022-08-12T01:53:10.526Z,30.27
2022-08-12T02:00:06.683Z,29.96
2022-08-12T02:07:28.799Z,30.17
2022-08-12T02:14:45.354Z,30.03
2022-08-12T02:21:45.234Z,29.76
2022-08-12T02:28:34.687Z,29.32
2022-08-12T02:35:23.199Z,30.03
2022-08-12T02:42:14.548Z,30.02
2022-08-12T03:02:54.862Z,29.69
2022-08-12T03:10:05.202Z,29.58
2022-08-12T03:17:03.816Z,29.39
2022-08-12T03:23:53.117Z,29.26
2022-08-12T03:30:43.274Z,29.17
2022-08-12T03:37:32.708Z,29.15
2022-08-12T03:44:43.220Z,29.05
2022-08-12T03:51:42.123Z,29.00
2022-08-12T03:58:41.601Z,28.95
2022-08-12T04:05:54.278Z,28.28
2022-08-12T04:12:48.653Z,28.78
2022-08-12T04:19:34.647Z,28.64
2022-08-12T04:26:22.757Z,28.26
2022-08-12T04:33:13.024Z,28.55
2022-08-12T04:39:58.902Z,28.08
2022-08-12T04:46:47.593Z,28.27
2022-08-12T04:53:33.708Z,28.21
2022-08-12T05:00:20.155Z,28.16
2022-08-12T05:07:11.841Z,28.05
2022-08-12T05:14:04.329Z,27.82
2022-08-12T05:20:50.724Z,28.10
2022-08-12T05:27:38.789Z,28.32
2022-08-12T05:34:41.177Z,28.48
2022-08-12T05:41:27.094Z,28.72
2022-08-12T05:48:15.904Z,28.66
2022-08-12T05:55:02.558Z,28.76
2022-08-12T06:02:09.913Z,28.82
2022-08-12T06:08:58.180Z,28.91
2022-08-12T06:15:43.771Z,29.03
2022-08-12T06:22:29.688Z,29.05
2022-08-12T06:30:07.318Z,29.12
2022-08-12T06:36:30.069Z,29.31
2022-08-12T06:43:19.927Z,29.50
2022-08-12T06:50:11.369Z,29.51
2022-08-12T06:57:04.182Z,29.75
2022-08-12T07:03:51.260Z,29.82
2022-08-12T07:10:44.639Z,29.96
2022-08-12T07:17:36.422Z,29.59
2022-08-12T07:24:22.453Z,29.81
2022-08-12T07:31:12.437Z,30.21
2022-08-12T07:38:03.954Z,30.36
2022-08-12T07:44:51.591Z,30.47
2022-08-12T07:51:40.680Z,30.68
2022-08-12T07:58:26.500Z,30.72
2022-08-12T08:05:13.177Z,30.92
2022-08-12T08:12:18.881Z,31.08
2022-08-12T08:19:05.133Z,31.11
2022-08-12T08:25:52.354Z,31.37
2022-08-12T08:32:41.092Z,31.56
2022-08-12T08:39:27.978Z,31.73
2022-08-12T08:46:14.556Z,31.95
2022-08-12T08:53:03.078Z,32.05
2022-08-12T08:59:51.777Z,32.29
2022-08-12T09:06:39.622Z,32.13
2022-08-12T09:14:10.493Z,32.48
2022-08-12T09:28:03.998Z,32.68
2022-08-12T09:34:55.290Z,32.17
2022-08-12T09:42:34.885Z,32.62
2022-08-12T09:48:56.725Z,32.80
2022-08-12T09:56:06.219Z,33.02
2022-08-12T10:03:06.150Z,33.39
2022-08-12T10:09:58.379Z,33.46
2022-08-12T10:16:49.233Z,33.66
2022-08-12T10:23:40.589Z,33.92
2022-08-12T10:30:39.492Z,34.20
2022-08-12T10:38:33.758Z,34.25
2022-08-12T10:44:36.562Z,34.32
2022-08-12T10:51:51.388Z,34.39
2022-08-12T10:58:31.772Z,34.29
2022-08-12T11:07:06.192Z,34.37
2022-08-12T11:12:56.584Z,34.38
2022-08-12T11:19:35.776Z,34.34
2022-08-12T11:26:23.211Z,34.51
2022-08-12T11:33:24.360Z,34.60
2022-08-12T11:40:20.440Z,34.78
2022-08-12T11:47:09.578Z,34.89
2022-08-12T11:53:56.916Z,34.92
2022-08-12T12:08:37.394Z,34.91
2022-08-12T12:15:03.128Z,35.29
2022-08-12T12:21:55.281Z,35.37
2022-08-12T12:28:54.423Z,35.44
2022-08-12T12:36:18.977Z,35.50
2022-08-12T12:42:57.760Z,35.46
2022-08-12T12:49:47.476Z,35.53
2022-08-12T12:56:42.979Z,35.44
2022-08-12T13:03:49.480Z,35.24
2022-08-12T13:10:36.564Z,35.79
2022-08-12T13:17:22.632Z,35.91
2022-08-12T13:24:12.101Z,35.92
2022-08-12T13:30:59.451Z,35.84
2022-08-12T13:37:55.236Z,35.73
2022-08-12T13:44:44.055Z,35.40
2022-08-12T13:51:41.256Z,35.69
2022-08-12T13:58:27.147Z,35.70
2022-08-12T14:05:37.442Z,35.81
2022-08-12T14:12:24.257Z,35.85
2022-08-12T14:19:10.474Z,35.97
2022-08-12T14:26:05.814Z,35.93
2022-08-12T14:32:57.720Z,35.96
2022-08-12T14:39:50.614Z,36.01
2022-08-12T14:46:39.152Z,36.12
2022-08-12T15:00:52.430Z,36.16
2022-08-12T15:07:49.438Z,36.15
2022-08-12T15:14:38.473Z,36.10
2022-08-12T15:21:24.272Z,35.91
2022-08-12T15:28:21.565Z,35.63
2022-08-12T15:35:12.010Z,36.24
2022-08-12T15:42:01.923Z,36.29
2022-08-12T15:48:50.359Z,36.34
2022-08-12T15:55:36.783Z,36.35
2022-08-12T16:02:31.534Z,36.39
2022-08-12T16:09:56.551Z,36.45
2022-08-12T16:16:30.389Z,36.39
2022-08-12T16:23:35.812Z,36.26
2022-08-12T16:30:32.856Z,36.08
2022-08-12T16:37:19.040Z,36.01
2022-08-12T16:44:08.305Z,35.87
2022-08-12T16:50:57.066Z,35.83
2022-08-12T16:57:45.530Z,35.67
2022-08-12T17:04:31.972Z,35.86
2022-08-12T17:11:20.432Z,35.83
2022-08-12T17:18:42.261Z,35.83
2022-08-12T17:25:15.874Z,35.90
2022-08-12T17:32:07.363Z,35.94
2022-08-12T17:38:54.623Z,35.76
2022-08-12T17:45:47.369Z,35.59
2022-08-12T17:52:40.312Z,35.49
2022-08-12T17:59:48.295Z,35.41
2022-08-12T18:06:31.636Z,35.32
2022-08-12T18:13:41.106Z,35.35
2022-08-12T18:20:30.326Z,35.37
2022-08-12T18:27:30.805Z,35.45
2022-08-12T18:34:32.565Z,35.50
2022-08-12T18:41:34.110Z,35.58
2022-08-12T18:48:21.048Z,35.65
2022-08-12T18:55:14.072Z,35.66
2022-08-12T19:02:22.048Z,35.71
2022-08-12T19:09:14.735Z,35.72
2022-08-12T19:16:10.532Z,35.67
2022-08-12T19:22:59.903Z,35.60
2022-08-12T19:30:06.804Z,35.51
2022-08-12T19:36:57.458Z,35.31
2022-08-12T19:44:00.621Z,35.14
2022-08-12T19:50:52.646Z,35.03
2022-08-12T19:57:42.385Z,34.93
2022-08-12T20:04:28.229Z,32.99
2022-08-12T20:12:13.790Z,34.58
2022-08-12T20:18:44.553Z,34.23
2022-08-12T20:25:52.863Z,34.08
2022-08-12T20:32:47.913Z,33.88
2022-08-12T20:39:56.553Z,33.66
2022-08-12T20:46:43.087Z,33.54
2022-08-12T20:53:54.067Z,33.03
2022-08-12T21:00:36.952Z,33.32
2022-08-12T21:07:24.226Z,33.14
2022-08-12T21:14:10.550Z,32.94
2022-08-12T21:20:59.195Z,32.79
2022-08-12T21:27:57.878Z,32.70
2022-08-12T21:34:45.697Z,32.22
2022-08-12T21:41:37.952Z,32.58
2022-08-12T21:48:24.436Z,32.52
2022-08-12T21:55:18.703Z,32.47
2022-08-12T22:02:30.929Z,32.45
2022-08-12T22:09:17.733Z,32.46
2022-08-12T22:16:03.539Z,32.43
2022-08-12T22:22:56.065Z,32.31
2022-08-12T22:29:55.098Z,32.24
2022-08-12T22:36:40.596Z,32.07
2022-08-12T22:43:58.539Z,31.94
2022-08-12T22:50:46.666Z,31.96
2022-08-12T22:57:53.748Z,32.07
2022-08-12T23:04:43.020Z,31.96
2022-08-12T23:11:33.705Z,31.78
2022-08-12T23:18:33.410Z,31.60
2022-08-12T23:25:22.207Z,31.50
2022-08-12T23:32:36.425Z,31.48
2022-08-12T23:40:13.221Z,31.45
2022-08-12T23:46:31.594Z,31.39
2022-08-12T23:53:22.840Z,31.39
